createdAt,value
2023-04-09T00:02:36.019Z,91.61
2023-04-09T00:07:37.773Z,91.64
2023-04-09T00:12:39.448Z,91.63
2023-04-09T00:17:41.323Z,91.68
2023-04-09T00:22:43.229Z,91.60
2023-04-09T00:27:44.878Z,91.61
2023-04-09T00:32:46.726Z,91.64
2023-04-09T00:37:48.534Z,91.30
2023-04-09T00:42:51.761Z,90.71
2023-04-09T00:47:53.690Z,91.19
2023-04-09T00:52:56.455Z,90.63
2023-04-09T00:57:58.388Z,91.33
2023-04-09T01:03:01.108Z,90.16
2023-04-09T01:08:17.956Z,89.87
2023-04-09T01:13:31.697Z,89.25
2023-04-09T01:18:50.868Z,90.69
2023-04-09T01:24:19.280Z,90.98
2023-04-09T01:29:24.045Z,91.41
2023-04-09T01:34:27.475Z,91.01
2023-04-09T01:39:30.054Z,90.91
2023-04-09T01:44:32.754Z,91.09
2023-04-09T01:49:36.276Z,91.23
2023-04-09T01:54:37.960Z,91.51
2023-04-09T01:59:39.608Z,92.41
2023-04-09T02:04:46.577Z,92.84
2023-04-09T02:09:48.882Z,93.15
2023-04-09T02:14:52.402Z,92.52
2023-04-09T02:19:54.068Z,92.65
2023-04-09T02:24:55.956Z,91.72
2023-04-09T02:29:57.629Z,92.24
2023-04-09T02:34:59.345Z,92.97
2023-04-09T02:40:01.044Z,92.74
2023-04-09T02:45:02.670Z,93.03
2023-04-09T02:50:06.756Z,93.27
2023-04-09T02:55:10.298Z,93.08
2023-04-09T03:00:12.809Z,93.02
2023-04-09T03:05:14.713Z,92.88
2023-04-09T03:10:16.375Z,93.16
2023-04-09T03:15:18.322Z,93.13
2023-04-09T03:20:20.137Z,92.12
2023-04-09T03:25:21.968Z,92.30
2023-04-09T03:30:27.485Z,92.06
2023-04-09T03:35:30.676Z,91.56
2023-04-09T03:40:36.505Z,91.50
2023-04-09T03:45:38.303Z,90.18
2023-04-09T03:50:53.780Z,89.95
2023-04-09T03:56:04.120Z,90.26
2023-04-09T04:01:06.984Z,90.42
2023-04-09T04:06:16.559Z,89.79
2023-04-09T04:11:26.644Z,89.65
2023-04-09T04:16:30.326Z,89.95
2023-04-09T04:21:32.391Z,90.00
2023-04-09T04:26:36.824Z,90.38
2023-04-09T04:31:38.682Z,91.00
2023-04-09T04:36:40.440Z,91.13
2023-04-09T04:41:42.989Z,91.25
2023-04-09T04:46:49.762Z,90.68
2023-04-09T04:51:51.481Z,92.21
2023-04-09T04:56:53.613Z,92.02
2023-04-09T05:02:11.836Z,91.78
2023-04-09T05:07:24.404Z,91.63
2023-04-09T05:12:32.016Z,91.34
2023-04-09T05:17:34.493Z,91.90
2023-04-09T05:22:36.451Z,90.41
2023-04-09T05:27:39.182Z,90.52
2023-04-09T05:32:41.516Z,91.62
2023-04-09T05:37:43.556Z,90.76
2023-04-09T05:42:46.668Z,90.77
2023-04-09T05:47:56.765Z,91.22
2023-04-09T05:52:58.645Z,89.60
2023-04-09T05:58:07.497Z,90.40
2023-04-09T06:03:09.789Z,90.26
2023-04-09T06:08:12.170Z,89.83
2023-04-09T06:13:14.015Z,89.12
2023-04-09T06:18:16.536Z,88.73
2023-04-09T06:23:18.428Z,88.68
2023-04-09T06:28:20.369Z,89.04
2023-04-09T06:33:22.438Z,88.88
2023-04-09T06:38:24.232Z,88.64
2023-04-09T06:43:26.097Z,88.79
2023-04-09T06:48:28.324Z,88.30
2023-04-09T06:53:29.975Z,88.89
2023-04-09T06:58:31.666Z,88.98
2023-04-09T07:03:33.560Z,88.80
2023-04-09T07:08:35.441Z,89.48
2023-04-09T07:13:37.316Z,89.68
2023-04-09T07:18:40.299Z,89.94
2023-04-09T07:23:42.556Z,89.89
2023-04-09T07:28:44.329Z,89.54
2023-04-09T07:33:46.214Z,89.65
2023-04-09T07:38:50.465Z,89.88
2023-04-09T07:43:52.277Z,90.20
2023-04-09T07:48:54.491Z,90.23
2023-04-09T07:53:56.424Z,90.47
2023-04-09T07:58:58.417Z,90.13
2023-04-09T08:04:00.657Z,89.66
2023-04-09T08:09:03.284Z,90.99
2023-04-09T08:14:06.324Z,90.39
2023-04-09T08:19:09.480Z,90.36
2023-04-09T08:24:12.055Z,90.85
2023-04-09T08:29:15.527Z,90.16
2023-04-09T08:34:21.039Z,90.29
2023-04-09T08:39:22.781Z,89.91
2023-04-09T08:44:27.889Z,89.55
2023-04-09T08:49:29.745Z,88.98
2023-04-09T08:54:32.281Z,88.79
2023-04-09T08:59:38.000Z,88.83
2023-04-09T09:04:50.911Z,87.86
2023-04-09T09:09:53.568Z,88.34
2023-04-09T09:14:55.405Z,88.15
2023-04-09T09:19:57.757Z,88.35
2023-04-09T09:24:59.510Z,87.81
2023-04-09T09:30:01.543Z,87.89
2023-04-09T09:35:08.469Z,88.12
2023-04-09T09:40:10.795Z,87.46
2023-04-09T09:45:19.606Z,87.30
2023-04-09T09:50:28.546Z,87.37
2023-04-09T09:55:43.462Z,86.50
2023-04-09T10:00:47.272Z,86.27
2023-04-09T10:05:50.040Z,86.45
2023-04-09T10:10:52.806Z,85.21
2023-04-09T10:16:56.962Z,85.55
2023-04-09T10:22:05.805Z,85.38
2023-04-09T10:27:14.280Z,84.84
2023-04-09T10:32:26.589Z,84.62
2023-04-09T10:37:28.871Z,83.44
2023-04-09T10:42:35.431Z,80.92
2023-04-09T10:47:39.653Z,80.60
2023-04-09T10:52:42.398Z,80.46
2023-04-09T10:57:44.210Z,79.54
2023-04-09T11:03:06.654Z,79.87
2023-04-09T11:08:10.707Z,79.30
2023-04-09T11:13:13.956Z,77.53
2023-04-09T11:18:20.883Z,77.63
2023-04-09T11:23:23.776Z,77.59
2023-04-09T11:28:26.438Z,77.50
2023-04-09T11:33:34.649Z,76.38
2023-04-09T11:38:37.210Z,73.97
2023-04-09T11:43:38.940Z,73.39
2023-04-09T11:48:40.699Z,72.53
2023-04-09T11:53:42.327Z,71.41
2023-04-09T11:58:48.267Z,70.29
2023-04-09T12:03:56.373Z,68.10
2023-04-09T12:08:59.410Z,67.19
2023-04-09T12:14:05.340Z,68.92
2023-04-09T12:19:08.714Z,66.90
2023-04-09T12:24:10.456Z,66.99
2023-04-09T12:29:14.036Z,66.65
2023-04-09T12:34:16.395Z,66.18
2023-04-09T12:39:18.252Z,67.25
2023-04-09T12:44:20.013Z,65.90
2023-04-09T12:49:21.692Z,66.00
2023-04-09T12:54:23.455Z,64.78
2023-04-09T12:59:25.263Z,65.58
2023-04-09T13:04:27.059Z,66.47
2023-04-09T13:09:28.815Z,66.95
2023-04-09T13:14:30.797Z,67.54
2023-04-09T13:19:32.728Z,67.08
2023-04-09T13:24:38.244Z,67.09
2023-04-09T13:29:40.101Z,67.34
2023-04-09T13:34:41.762Z,66.56
2023-04-09T13:39:44.870Z,66.41
2023-04-09T13:44:46.799Z,66.00
2023-04-09T13:49:48.555Z,65.33
2023-04-09T13:54:50.326Z,65.45
2023-04-09T13:59:51.994Z,65.42
2023-04-09T14:04:53.743Z,66.37
2023-04-09T14:09:55.440Z,68.54
2023-04-09T14:14:57.175Z,68.45
2023-04-09T14:19:59.163Z,68.31
2023-04-09T14:25:00.781Z,69.13
2023-04-09T14:30:03.594Z,68.82
2023-04-09T14:35:06.364Z,67.92
2023-04-09T14:40:08.737Z,67.18
2023-04-09T14:45:11.067Z,65.45
2023-04-09T14:50:12.979Z,64.92
2023-04-09T14:55:15.643Z,64.74
2023-04-09T15:00:17.328Z,61.15
2023-04-09T15:05:19.215Z,60.48
2023-04-09T15:10:21.005Z,58.78
2023-04-09T15:15:22.890Z,57.28
2023-04-09T15:20:24.622Z,56.37
2023-04-09T15:25:26.255Z,55.58
2023-04-09T15:30:27.929Z,55.42
2023-04-09T15:35:29.711Z,54.72
2023-04-09T15:40:32.000Z,53.35
2023-04-09T15:45:33.737Z,53.01
2023-04-09T15:50:35.617Z,53.15
2023-04-09T15:55:37.340Z,52.30
2023-04-09T16:00:39.004Z,52.33
2023-04-09T16:05:40.695Z,52.32
2023-04-09T16:10:42.393Z,52.56
2023-04-09T16:15:45.423Z,53.48
2023-04-09T16:20:47.304Z,53.80
2023-04-09T16:25:49.498Z,52.48
2023-04-09T16:30:51.138Z,51.48
2023-04-09T16:35:52.859Z,51.91
2023-04-09T16:40:54.972Z,52.41
2023-04-09T16:45:57.151Z,53.32
2023-04-09T16:50:58.892Z,53.77
2023-04-09T16:56:00.760Z,52.68
2023-04-09T17:01:02.436Z,53.88
2023-04-09T17:06:04.930Z,52.81
2023-04-09T17:11:06.946Z,52.79
2023-04-09T17:16:09.372Z,52.90
2023-04-09T17:21:12.410Z,53.63
2023-04-09T17:26:16.866Z,53.26
2023-04-09T17:31:19.213Z,53.77
2023-04-09T17:36:21.350Z,54.36
2023-04-09T17:41:24.066Z,53.95
2023-04-09T17:46:25.855Z,53.35
2023-04-09T17:51:27.758Z,53.19
2023-04-09T17:56:29.374Z,53.64
2023-04-09T18:01:31.053Z,53.52
2023-04-09T18:06:32.924Z,53.96
2023-04-09T18:11:34.644Z,53.90
2023-04-09T18:16:40.138Z,54.35
2023-04-09T18:21:42.046Z,53.88
2023-04-09T18:26:44.012Z,54.44
2023-04-09T18:31:45.778Z,55.00
2023-04-09T18:36:48.700Z,54.93
2023-04-09T18:41:50.675Z,55.02
2023-04-09T18:46:52.604Z,55.37
2023-04-09T18:51:54.785Z,55.76
2023-04-09T18:56:57.593Z,55.84
2023-04-09T19:01:59.589Z,56.09
2023-04-09T19:07:01.773Z,56.33
2023-04-09T19:12:03.768Z,56.98
2023-04-09T19:17:05.677Z,56.83
2023-04-09T19:22:07.517Z,56.90
2023-04-09T19:27:10.069Z,57.75
2023-04-09T19:32:13.365Z,57.90
2023-04-09T19:37:16.486Z,57.69
2023-04-09T19:42:18.227Z,58.17
2023-04-09T19:47:19.975Z,58.07
2023-04-09T19:52:21.787Z,58.20
2023-04-09T19:57:23.530Z,57.88
2023-04-09T20:02:25.642Z,58.34
2023-04-09T20:07:27.352Z,58.67
2023-04-09T20:12:29.694Z,58.79
2023-04-09T20:17:32.040Z,58.64
2023-04-09T20:22:34.083Z,58.82
2023-04-09T20:27:35.687Z,58.50
2023-04-09T20:32:41.213Z,58.52
2023-04-09T20:37:51.801Z,58.50
2023-04-09T20:42:53.560Z,58.05
2023-04-09T20:47:56.235Z,58.36
2023-04-09T20:53:01.159Z,57.94
2023-04-09T20:58:04.265Z,57.96
2023-04-09T21:03:06.052Z,58.01
2023-04-09T21:08:08.271Z,58.26
2023-04-09T21:13:09.885Z,58.29
2023-04-09T21:18:11.591Z,58.01
2023-04-09T21:23:13.674Z,57.94
2023-04-09T21:28:15.582Z,58.21
2023-04-09T21:33:17.204Z,58.04
2023-04-09T21:38:19.255Z,58.10
2023-04-09T21:43:20.923Z,58.31
2023-04-09T21:48:23.085Z,58.00
2023-04-09T21:53:24.852Z,57.95
2023-04-09T21:58:26.562Z,57.89
2023-04-09T22:03:28.694Z,57.80
2023-04-09T22:08:30.504Z,58.29
2023-04-09T22:13:32.125Z,57.96
2023-04-09T22:18:37.099Z,58.24
2023-04-09T22:23:38.709Z,58.22
2023-04-09T22:28:40.348Z,58.62
2023-04-09T22:33:42.032Z,58.82
2023-04-09T22:38:43.697Z,58.75
2023-04-09T22:43:45.694Z,58.98
2023-04-09T22:48:47.553Z,58.84
2023-04-09T22:53:49.145Z,58.71
2023-04-09T22:58:51.035Z,59.19
2023-04-09T23:03:52.928Z,59.53
2023-04-09T23:08:54.853Z,59.75
2023-04-09T23:13:56.727Z,59.34
2023-04-09T23:18:58.364Z,59.45
2023-04-09T23:24:00.038Z,59.54
2023-04-09T23:29:01.807Z,59.76
2023-04-09T23:34:03.460Z,59.72
2023-04-09T23:39:05.461Z,58.77
2023-04-09T23:44:07.049Z,58.68
2023-04-09T23:49:08.649Z,58.87
2023-04-09T23:54:10.630Z,58.48
2023-04-09T23:59:12.418Z,58.92
